createdAt,value
2023-08-11T00:01:56.559Z,19.69
2023-08-11T00:04:24.204Z,19.68
2023-08-11T00:06:51.934Z,19.65
2023-08-11T00:09:18.540Z,19.62
2023-08-11T00:11:45.117Z,19.58
2023-08-11T00:14:12.786Z,19.54
2023-08-11T00:16:39.357Z,19.49
2023-08-11T00:19:06.966Z,19.49
2023-08-11T00:21:34.602Z,19.40
2023-08-11T00:24:03.267Z,19.44
2023-08-11T00:26:29.886Z,19.39
2023-08-11T00:28:57.489Z,19.41
2023-08-11T00:31:25.244Z,19.39
2023-08-11T00:33:53.975Z,19.39
2023-08-11T00:36:20.660Z,19.41
2023-08-11T00:38:48.298Z,19.41
2023-08-11T00:41:14.866Z,19.39
2023-08-11T00:43:42.509Z,19.37
2023-08-11T00:46:13.883Z,19.32
2023-08-11T00:48:43.653Z,19.26
2023-08-11T00:51:15.156Z,19.24
2023-08-11T00:53:43.060Z,19.18
2023-08-11T00:56:09.629Z,19.13
2023-08-11T00:58:36.389Z,19.09
2023-08-11T01:01:04.043Z,19.01
2023-08-11T01:03:30.710Z,18.96
2023-08-11T01:06:29.016Z,18.88
2023-08-11T01:09:25.020Z,18.78
2023-08-11T01:12:17.636Z,18.73
2023-08-11T01:14:58.506Z,18.65
2023-08-11T01:17:25.860Z,18.56
2023-08-11T01:19:52.612Z,18.53
2023-08-11T01:22:25.587Z,18.47
2023-08-11T01:24:53.071Z,18.42
2023-08-11T01:27:20.945Z,18.40
2023-08-11T01:29:48.614Z,18.37
2023-08-11T01:32:15.183Z,18.35
2023-08-11T01:34:42.833Z,18.35
2023-08-11T01:37:09.677Z,18.29
2023-08-11T01:39:36.601Z,18.29
2023-08-11T01:42:05.222Z,18.31
2023-08-11T01:44:31.988Z,18.23
2023-08-11T01:47:00.302Z,18.18
2023-08-11T01:49:27.614Z,18.17
2023-08-11T01:51:56.582Z,18.11
2023-08-11T01:54:23.546Z,18.07
2023-08-11T01:56:51.858Z,18.04
2023-08-11T01:59:18.730Z,17.99
2023-08-11T02:01:46.375Z,17.99
2023-08-11T02:04:14.290Z,18.01
2023-08-11T02:06:42.432Z,17.98
2023-08-11T02:09:09.228Z,17.99
2023-08-11T02:11:39.827Z,17.96
2023-08-11T02:14:07.993Z,17.99
2023-08-11T02:16:34.725Z,17.94
2023-08-11T02:19:01.509Z,17.88
2023-08-11T02:21:30.078Z,17.91
2023-08-11T02:23:56.684Z,17.88
2023-08-11T02:26:24.753Z,17.82
2023-08-11T02:28:51.508Z,17.80
2023-08-11T02:31:19.494Z,17.76
2023-08-11T02:33:46.879Z,17.76
2023-08-11T02:36:14.423Z,17.78
2023-08-11T02:38:42.296Z,17.69
2023-08-11T02:41:08.913Z,17.77
2023-08-11T02:43:36.602Z,17.75
2023-08-11T02:46:03.293Z,17.76
2023-08-11T02:48:30.907Z,17.66
2023-08-11T02:50:57.469Z,17.64
2023-08-11T02:53:25.142Z,17.66
2023-08-11T02:55:51.858Z,17.66
2023-08-11T02:58:19.506Z,17.64
2023-08-11T03:00:46.220Z,17.64
2023-08-11T03:03:14.017Z,17.66
2023-08-11T03:05:41.727Z,17.65
2023-08-11T03:08:09.329Z,17.61
2023-08-11T03:10:43.264Z,17.61
2023-08-11T03:13:23.724Z,17.57
2023-08-11T03:15:50.463Z,17.50
2023-08-11T03:18:17.113Z,17.49
2023-08-11T03:20:44.744Z,17.46
2023-08-11T03:23:11.356Z,17.45
2023-08-11T03:25:39.015Z,17.42
2023-08-11T03:28:05.788Z,17.39
2023-08-11T03:30:32.379Z,17.42
2023-08-11T03:33:00.118Z,17.43
2023-08-11T03:35:26.748Z,17.38
2023-08-11T03:37:54.477Z,17.40
2023-08-11T03:40:21.136Z,17.39
2023-08-11T03:42:48.762Z,17.37
2023-08-11T03:45:15.492Z,17.35
2023-08-11T03:47:44.533Z,17.33
2023-08-11T03:50:11.879Z,17.32
2023-08-11T03:52:39.878Z,17.34
2023-08-11T03:55:06.654Z,17.34
2023-08-11T03:57:34.301Z,17.34
2023-08-11T04:00:00.919Z,17.33
2023-08-11T04:02:30.248Z,17.34
2023-08-11T04:04:56.846Z,17.32
2023-08-11T04:07:24.480Z,17.28
2023-08-11T04:09:51.044Z,17.24
2023-08-11T04:12:17.615Z,17.22
2023-08-11T04:14:45.242Z,17.25
2023-08-11T04:17:11.808Z,17.26
2023-08-11T04:19:39.414Z,17.22
2023-08-11T04:22:06.253Z,17.22
2023-08-11T04:24:34.062Z,17.21
2023-08-11T04:27:00.728Z,17.19
2023-08-11T04:29:27.466Z,17.17
2023-08-11T04:31:55.072Z,17.21
2023-08-11T04:34:21.697Z,17.13
2023-08-11T04:36:48.305Z,17.16
2023-08-11T04:39:16.014Z,17.18
2023-08-11T04:41:43.675Z,17.21
2023-08-11T04:44:11.359Z,17.17
2023-08-11T04:46:39.070Z,17.22
2023-08-11T04:49:05.663Z,17.19
2023-08-11T04:51:33.273Z,17.21
2023-08-11T04:53:59.913Z,17.30
2023-08-11T04:56:27.646Z,17.36
2023-08-11T04:58:56.136Z,17.24
2023-08-11T05:01:23.353Z,17.26
2023-08-11T05:03:51.032Z,17.23
2023-08-11T05:06:19.293Z,17.23
2023-08-11T05:08:47.113Z,17.23
2023-08-11T05:11:14.954Z,17.21
2023-08-11T05:13:41.506Z,17.19
2023-08-11T05:16:09.215Z,17.21
2023-08-11T05:18:43.505Z,17.21
2023-08-11T05:21:11.636Z,17.21
2023-08-11T05:23:38.257Z,17.21
2023-08-11T05:26:05.923Z,17.21
2023-08-11T05:28:32.495Z,17.21
2023-08-11T05:30:59.076Z,17.14
2023-08-11T05:33:26.693Z,17.22
2023-08-11T05:35:53.270Z,17.28
2023-08-11T05:38:24.692Z,17.23
2023-08-11T05:40:52.324Z,17.32
2023-08-11T05:43:19.083Z,17.41
2023-08-11T05:45:45.714Z,17.44
2023-08-11T05:48:13.362Z,17.46
2023-08-11T05:50:40.404Z,17.47
2023-08-11T05:53:08.066Z,17.51
2023-08-11T05:55:34.673Z,17.54
2023-08-11T05:58:01.408Z,17.54
2023-08-11T06:00:29.103Z,17.60
2023-08-11T06:02:56.817Z,17.63
2023-08-11T06:05:23.524Z,17.60
2023-08-11T06:08:03.940Z,17.62
2023-08-11T06:10:34.581Z,17.63
2023-08-11T06:13:01.293Z,17.67
2023-08-11T06:15:27.936Z,17.69
2023-08-11T06:17:55.654Z,17.78
2023-08-11T06:20:38.617Z,17.84
2023-08-11T06:23:06.093Z,17.90
2023-08-11T06:25:33.761Z,17.90
2023-08-11T06:28:00.365Z,17.91
2023-08-11T06:30:26.991Z,17.96
2023-08-11T06:32:54.662Z,17.97
2023-08-11T06:35:21.489Z,17.89
2023-08-11T06:37:48.254Z,17.99
2023-08-11T06:40:15.962Z,18.00
2023-08-11T06:42:43.659Z,17.98
2023-08-11T06:45:10.815Z,18.01
2023-08-11T06:47:38.808Z,18.12
2023-08-11T06:50:05.914Z,18.24
2023-08-11T06:52:33.585Z,18.28
2023-08-11T06:55:01.249Z,18.41
2023-08-11T06:57:27.872Z,18.48
2023-08-11T06:59:55.488Z,18.56
2023-08-11T07:02:22.134Z,18.60
2023-08-11T07:04:49.120Z,18.64
2023-08-11T07:07:16.787Z,18.71
2023-08-11T07:09:43.391Z,18.74
2023-08-11T07:12:09.979Z,18.78
2023-08-11T07:14:37.640Z,18.83
2023-08-11T07:17:05.342Z,18.86
2023-08-11T07:19:32.001Z,18.92
2023-08-11T07:21:59.662Z,18.89
2023-08-11T07:24:26.232Z,18.97
2023-08-11T07:26:52.830Z,18.96
2023-08-11T07:29:20.574Z,18.98
2023-08-11T07:31:47.176Z,19.01
2023-08-11T07:34:14.826Z,19.06
2023-08-11T07:36:41.553Z,19.18
2023-08-11T07:39:22.248Z,19.26
2023-08-11T07:41:52.672Z,19.28
2023-08-11T07:44:20.454Z,19.34
2023-08-11T07:46:47.073Z,19.43
2023-08-11T07:49:13.843Z,19.44
2023-08-11T07:51:41.679Z,19.69
2023-08-11T07:54:08.352Z,19.68
2023-08-11T07:56:36.220Z,19.80
2023-08-11T07:59:02.858Z,19.88
2023-08-11T08:01:30.653Z,19.91
2023-08-11T08:03:57.429Z,19.91
2023-08-11T08:06:24.126Z,19.88
2023-08-11T08:08:51.804Z,19.84
2023-08-11T08:11:19.871Z,19.84
2023-08-11T08:13:46.452Z,19.91
2023-08-11T08:16:13.270Z,19.85
2023-08-11T08:18:40.966Z,19.87
2023-08-11T08:21:07.518Z,19.87
2023-08-11T08:23:35.202Z,19.88
2023-08-11T08:26:01.862Z,19.88
2023-08-11T08:28:31.427Z,19.90
2023-08-11T08:30:59.252Z,19.84
2023-08-11T08:33:26.880Z,19.77
2023-08-11T08:35:53.459Z,19.77
2023-08-11T08:38:21.074Z,19.81
2023-08-11T08:40:48.123Z,19.82
2023-08-11T08:43:16.063Z,19.80
2023-08-11T08:45:44.889Z,19.82
2023-08-11T08:48:21.593Z,19.77
2023-08-11T08:50:49.300Z,19.75
2023-08-11T08:53:16.222Z,19.75
2023-08-11T08:55:44.006Z,19.74
2023-08-11T08:58:10.580Z,19.76
2023-08-11T09:00:38.204Z,19.73
2023-08-11T09:03:05.945Z,19.74
2023-08-11T09:05:34.318Z,19.77
2023-08-11T09:08:00.888Z,19.82
2023-08-11T09:10:29.428Z,19.87
2023-08-11T09:12:57.089Z,19.91
2023-08-11T09:15:23.725Z,19.93
2023-08-11T09:17:52.815Z,19.95
2023-08-11T09:20:19.503Z,20.01
2023-08-11T09:22:47.334Z,20.06
2023-08-11T09:25:13.928Z,20.06
2023-08-11T09:27:40.583Z,20.07
2023-08-11T09:30:10.909Z,20.15
2023-08-11T09:32:38.629Z,20.16
2023-08-11T09:35:08.925Z,20.18
2023-08-11T09:37:36.138Z,20.18
2023-08-11T09:40:04.222Z,20.16
2023-08-11T09:42:30.944Z,20.15
2023-08-11T09:44:57.507Z,20.17
2023-08-11T09:47:25.163Z,20.21
2023-08-11T09:49:51.771Z,20.28
2023-08-11T09:52:20.032Z,20.28
2023-08-11T09:54:51.705Z,20.28
2023-08-11T09:57:19.733Z,20.26
2023-08-11T09:59:48.524Z,20.32
2023-08-11T10:02:22.721Z,20.30
2023-08-11T10:04:56.378Z,20.32
2023-08-11T10:07:26.158Z,20.37
2023-08-11T10:09:53.972Z,20.41
2023-08-11T10:12:20.661Z,20.50
2023-08-11T10:14:48.470Z,20.46
2023-08-11T10:17:15.433Z,20.49
2023-08-11T10:19:44.219Z,20.48
2023-08-11T10:22:12.044Z,20.47
2023-08-11T10:24:40.313Z,20.46
2023-08-11T10:27:09.108Z,20.40
2023-08-11T10:29:40.294Z,20.41
2023-08-11T10:32:07.183Z,20.43
2023-08-11T10:34:34.042Z,20.48
2023-08-11T10:37:01.631Z,20.52
2023-08-11T10:39:30.252Z,20.54
2023-08-11T10:41:58.936Z,20.58
2023-08-11T10:44:29.245Z,20.60
2023-08-11T10:46:59.670Z,20.65
2023-08-11T10:49:34.403Z,20.62
2023-08-11T10:52:03.483Z,20.64
2023-08-11T10:54:30.056Z,20.69
2023-08-11T10:57:01.995Z,20.71
2023-08-11T10:59:30.324Z,20.75
2023-08-11T11:01:59.179Z,20.80
2023-08-11T11:04:29.152Z,20.84
2023-08-11T11:06:56.834Z,20.89
2023-08-11T11:09:23.414Z,20.83
2023-08-11T11:11:51.682Z,20.88
2023-08-11T11:14:19.796Z,20.88
2023-08-11T11:16:48.302Z,20.92
2023-08-11T11:19:14.898Z,20.97
2023-08-11T11:21:42.612Z,20.96
2023-08-11T11:24:10.271Z,20.96
2023-08-11T11:26:36.968Z,20.89
2023-08-11T11:29:06.914Z,20.85
2023-08-11T11:31:36.235Z,20.87
2023-08-11T11:34:08.035Z,20.85
2023-08-11T11:36:34.644Z,20.86
2023-08-11T11:39:04.824Z,20.89
2023-08-11T11:41:33.018Z,20.85
2023-08-11T11:43:59.930Z,20.83
2023-08-11T11:46:27.872Z,20.90
2023-08-11T11:48:55.301Z,20.90
2023-08-11T11:51:28.569Z,20.95
2023-08-11T11:53:56.507Z,20.96
2023-08-11T11:56:24.441Z,20.94
2023-08-11T11:58:51.045Z,20.92
2023-08-11T12:01:24.442Z,20.97
2023-08-11T12:03:51.941Z,21.03
2023-08-11T12:06:19.759Z,21.11
2023-08-11T12:08:50.736Z,21.19
2023-08-11T12:11:22.616Z,21.30
2023-08-11T12:13:50.278Z,21.40
2023-08-11T12:16:16.981Z,21.49
2023-08-11T12:18:43.988Z,21.52
2023-08-11T12:21:12.473Z,21.57
2023-08-11T12:23:39.090Z,21.62
2023-08-11T12:26:06.722Z,21.58
2023-08-11T12:28:33.300Z,21.54
2023-08-11T12:31:01.095Z,21.52
2023-08-11T12:33:28.554Z,21.52
2023-08-11T12:35:56.354Z,21.46
2023-08-11T12:38:22.925Z,21.40
2023-08-11T12:40:50.817Z,21.40
2023-08-11T12:43:17.568Z,21.48
2023-08-11T12:45:46.385Z,21.48
2023-08-11T12:48:13.473Z,21.53
2023-08-11T12:50:41.529Z,21.59
2023-08-11T12:53:10.108Z,21.59
2023-08-11T12:55:36.937Z,21.61
2023-08-11T12:58:04.844Z,21.56
2023-08-11T13:00:32.188Z,21.58
2023-08-11T13:03:00.215Z,21.62
2023-08-11T13:05:26.996Z,21.58
2023-08-11T13:07:53.555Z,21.59
2023-08-11T13:10:21.201Z,21.64
2023-08-11T13:12:47.932Z,21.63
2023-08-11T13:15:15.551Z,21.56
2023-08-11T13:17:42.177Z,21.58
2023-08-11T13:20:11.156Z,21.66
2023-08-11T13:22:38.207Z,21.70
2023-08-11T13:25:05.354Z,21.78
2023-08-11T13:27:33.153Z,21.77
2023-08-11T13:30:00.880Z,21.88
2023-08-11T13:32:29.177Z,21.96
2023-08-11T13:34:55.764Z,22.04
2023-08-11T13:37:23.368Z,22.03
2023-08-11T13:39:50.027Z,22.01
2023-08-11T13:42:18.993Z,22.00
2023-08-11T13:44:46.630Z,21.98
2023-08-11T13:47:13.190Z,22.01
2023-08-11T13:49:40.792Z,22.04
2023-08-11T13:52:07.664Z,22.03
2023-08-11T13:54:34.576Z,22.04
2023-08-11T13:57:02.253Z,21.99
2023-08-11T13:59:28.798Z,21.95
2023-08-11T14:01:56.403Z,21.92
2023-08-11T14:04:23.005Z,21.94
2023-08-11T14:06:50.654Z,21.93
2023-08-11T14:09:18.275Z,21.96
2023-08-11T14:11:44.853Z,21.95
2023-08-11T14:14:11.411Z,21.96
2023-08-11T14:16:39.044Z,21.98
2023-08-11T14:19:06.767Z,22.00
2023-08-11T14:21:33.347Z,22.00
2023-08-11T14:24:00.959Z,22.09
2023-08-11T14:26:27.577Z,22.03
2023-08-11T14:28:55.156Z,22.07
2023-08-11T14:31:21.734Z,22.05
2023-08-11T14:33:49.376Z,22.07
2023-08-11T14:36:16.070Z,22.04
2023-08-11T14:38:42.654Z,22.06
2023-08-11T14:41:10.289Z,22.03
2023-08-11T14:43:36.853Z,22.02
2023-08-11T14:46:04.478Z,22.06
2023-08-11T14:48:31.061Z,22.03
2023-08-11T14:50:58.987Z,22.03
2023-08-11T14:53:26.585Z,22.10
2023-08-11T14:55:53.173Z,22.09
2023-08-11T14:58:20.834Z,22.09
2023-08-11T15:00:47.438Z,22.10
2023-08-11T15:03:16.309Z,22.08
2023-08-11T15:05:44.190Z,22.10
2023-08-11T15:08:11.902Z,22.09
2023-08-11T15:10:38.516Z,22.03
2023-08-11T15:13:06.331Z,21.98
2023-08-11T15:15:33.279Z,22.03
2023-08-11T15:18:00.991Z,22.09
2023-08-11T15:20:27.592Z,22.15
2023-08-11T15:22:54.157Z,22.22
2023-08-11T15:25:21.775Z,22.05
2023-08-11T15:27:48.327Z,22.01
2023-08-11T15:30:14.886Z,22.00
2023-08-11T15:32:42.758Z,22.00
2023-08-11T15:35:09.417Z,21.92
2023-08-11T15:37:37.164Z,21.82
2023-08-11T15:40:05.465Z,21.82
2023-08-11T15:42:33.393Z,21.92
2023-08-11T15:45:00.035Z,21.98
2023-08-11T15:47:26.931Z,22.02
2023-08-11T15:49:54.656Z,22.03
2023-08-11T15:52:21.212Z,22.13
2023-08-11T15:54:47.753Z,22.11
2023-08-11T15:57:15.340Z,22.17
2023-08-11T15:59:41.937Z,22.23
2023-08-11T16:02:11.063Z,22.23
2023-08-11T16:04:38.138Z,22.17
2023-08-11T16:07:05.233Z,22.17
2023-08-11T16:09:32.857Z,22.12
2023-08-11T16:12:00.504Z,22.01
2023-08-11T16:14:27.080Z,21.95
2023-08-11T16:16:54.685Z,21.98
2023-08-11T16:19:22.687Z,21.99
2023-08-11T16:21:49.316Z,22.07
2023-08-11T16:24:17.008Z,22.03
2023-08-11T16:26:43.578Z,21.90
2023-08-11T16:29:10.166Z,21.71
2023-08-11T16:31:37.894Z,21.71
2023-08-11T16:34:04.649Z,21.67
2023-08-11T16:36:32.332Z,21.62
2023-08-11T16:38:59.941Z,21.58
2023-08-11T16:41:26.568Z,21.64
2023-08-11T16:43:54.173Z,21.96
2023-08-11T16:46:20.766Z,22.04
2023-08-11T16:48:48.906Z,22.35
2023-08-11T16:51:15.488Z,22.57
2023-08-11T16:53:43.410Z,22.34
2023-08-11T16:56:10.191Z,22.17
2023-08-11T16:58:37.326Z,22.32
2023-08-11T17:01:05.072Z,22.22
2023-08-11T17:03:32.896Z,22.05
2023-08-11T17:05:59.680Z,22.12
2023-08-11T17:08:27.401Z,22.26
2023-08-11T17:10:54.010Z,22.53
2023-08-11T17:13:21.671Z,22.77
2023-08-11T17:15:49.318Z,22.98
2023-08-11T17:18:15.902Z,22.97
2023-08-11T17:20:43.597Z,22.94
2023-08-11T17:23:10.172Z,22.95
2023-08-11T17:25:37.825Z,22.83
2023-08-11T17:28:04.823Z,22.60
2023-08-11T17:30:32.445Z,22.75
2023-08-11T17:32:59.076Z,22.50
2023-08-11T17:35:25.727Z,22.10
2023-08-11T17:37:53.339Z,21.84
2023-08-11T17:40:19.982Z,21.68
2023-08-11T17:42:47.642Z,21.63
2023-08-11T17:45:14.224Z,21.62
2023-08-11T17:47:41.861Z,21.62
2023-08-11T17:50:08.686Z,21.63
2023-08-11T17:52:36.298Z,21.51
2023-08-11T17:55:02.860Z,21.60
2023-08-11T17:57:30.450Z,21.84
2023-08-11T17:59:58.112Z,22.07
2023-08-11T18:02:24.753Z,22.25
2023-08-11T18:04:52.397Z,22.39
2023-08-11T18:07:19.995Z,22.29
2023-08-11T18:09:46.592Z,22.53
2023-08-11T18:12:13.547Z,22.62
2023-08-11T18:14:53.886Z,22.66
2023-08-11T18:17:21.159Z,22.65
2023-08-11T18:19:48.805Z,22.38
2023-08-11T18:22:16.447Z,22.19
2023-08-11T18:24:43.001Z,22.10
2023-08-11T18:27:10.677Z,22.06
2023-08-11T18:29:37.330Z,22.14
2023-08-11T18:32:05.314Z,22.18
2023-08-11T18:34:33.147Z,22.11
2023-08-11T18:36:59.718Z,21.98
2023-08-11T18:39:26.310Z,21.81
2023-08-11T18:41:53.972Z,21.68
2023-08-11T18:44:20.524Z,21.54
2023-08-11T18:46:48.186Z,21.46
2023-08-11T18:49:14.797Z,21.22
2023-08-11T18:51:42.448Z,21.11
2023-08-11T18:54:10.143Z,20.95
2023-08-11T18:56:37.378Z,20.82
2023-08-11T18:59:05.172Z,20.76
2023-08-11T19:01:31.775Z,20.72
2023-08-11T19:03:59.529Z,20.66
2023-08-11T19:06:28.222Z,20.63
2023-08-11T19:08:54.797Z,20.53
2023-08-11T19:11:22.444Z,20.50
2023-08-11T19:13:49.575Z,20.44
2023-08-11T19:16:16.233Z,20.46
2023-08-11T19:18:44.354Z,20.42
2023-08-11T19:21:10.928Z,20.40
2023-08-11T19:23:37.509Z,20.42
2023-08-11T19:26:05.244Z,20.51
2023-08-11T19:28:31.807Z,20.56
2023-08-11T19:31:00.445Z,20.57
2023-08-11T19:33:28.225Z,20.52
2023-08-11T19:35:55.244Z,20.52
2023-08-11T19:38:21.842Z,20.47
2023-08-11T19:40:49.948Z,20.41
2023-08-11T19:43:16.575Z,20.37
2023-08-11T19:45:51.315Z,20.35
2023-08-11T19:48:18.117Z,20.34
2023-08-11T19:50:48.966Z,20.34
2023-08-11T19:53:17.006Z,20.28
2023-08-11T19:55:43.972Z,20.25
2023-08-11T19:58:11.591Z,20.24
2023-08-11T20:00:40.456Z,20.21
2023-08-11T20:03:08.351Z,20.16
2023-08-11T20:05:42.957Z,20.16
2023-08-11T20:08:09.520Z,20.11
2023-08-11T20:10:37.173Z,20.10
2023-08-11T20:13:04.530Z,20.08
2023-08-11T20:15:33.379Z,20.07
2023-08-11T20:17:59.984Z,20.07
2023-08-11T20:20:27.607Z,20.03
2023-08-11T20:22:54.159Z,20.03
2023-08-11T20:25:21.762Z,19.94
2023-08-11T20:27:49.425Z,19.92
2023-08-11T20:30:16.033Z,19.91
2023-08-11T20:32:43.662Z,19.85
2023-08-11T20:35:10.366Z,19.84
2023-08-11T20:37:38.117Z,19.85
2023-08-11T20:40:05.095Z,19.82
2023-08-11T20:42:32.733Z,19.78
2023-08-11T20:44:59.295Z,19.76
2023-08-11T20:47:25.957Z,19.79
2023-08-11T20:49:53.596Z,19.79
2023-08-11T20:52:20.441Z,19.77
2023-08-11T20:54:46.991Z,19.72
2023-08-11T20:57:16.170Z,19.68
2023-08-11T20:59:43.831Z,19.66
2023-08-11T21:02:11.476Z,19.63
2023-08-11T21:04:38.078Z,19.60
2023-08-11T21:07:05.735Z,19.57
2023-08-11T21:09:32.313Z,19.52
2023-08-11T21:11:59.968Z,19.50
2023-08-11T21:14:26.538Z,19.45
2023-08-11T21:16:53.143Z,19.42
2023-08-11T21:19:20.794Z,19.42
2023-08-11T21:21:47.466Z,19.35
2023-08-11T21:24:15.805Z,19.34
2023-08-11T21:26:42.392Z,19.32
2023-08-11T21:29:09.540Z,19.31
2023-08-11T21:31:37.166Z,19.28
2023-08-11T21:34:06.078Z,19.26
2023-08-11T21:36:34.484Z,19.26
2023-08-11T21:39:01.633Z,19.21
2023-08-11T21:41:30.114Z,19.20
2023-08-11T21:43:56.695Z,19.19
2023-08-11T21:46:24.507Z,19.18
2023-08-11T21:48:51.094Z,19.12
2023-08-11T21:51:17.675Z,19.12
2023-08-11T21:53:45.316Z,19.15
2023-08-11T21:56:12.991Z,19.07
2023-08-11T21:58:40.585Z,19.08
2023-08-11T22:01:07.169Z,19.03
2023-08-11T22:03:34.808Z,19.04
2023-08-11T22:06:02.446Z,19.02
2023-08-11T22:08:29.032Z,18.97
2023-08-11T22:10:56.673Z,18.95
2023-08-11T22:13:23.335Z,18.90
2023-08-11T22:15:51.083Z,18.83
2023-08-11T22:18:17.729Z,18.86
2023-08-11T22:20:44.321Z,18.73
2023-08-11T22:23:11.994Z,18.76
2023-08-11T22:25:39.689Z,18.73
2023-08-11T22:28:06.420Z,18.68
2023-08-11T22:30:34.261Z,18.69
2023-08-11T22:33:01.909Z,18.74
2023-08-11T22:35:28.545Z,18.79
2023-08-11T22:37:57.227Z,18.88
2023-08-11T22:40:23.838Z,18.91
2023-08-11T22:42:51.458Z,18.89
2023-08-11T22:45:18.048Z,18.81
2023-08-11T22:47:45.957Z,18.76
2023-08-11T22:50:14.878Z,18.71
2023-08-11T22:52:42.550Z,18.64
2023-08-11T22:55:09.196Z,18.64
2023-08-11T22:57:36.807Z,18.61
2023-08-11T23:00:04.729Z,18.59
2023-08-11T23:02:32.454Z,18.59
2023-08-11T23:05:00.077Z,18.54
2023-08-11T23:07:26.820Z,18.52
2023-08-11T23:09:54.485Z,18.54
2023-08-11T23:12:22.462Z,18.53
2023-08-11T23:14:49.059Z,18.52
2023-08-11T23:17:16.719Z,18.51
2023-08-11T23:19:43.458Z,18.51
2023-08-11T23:22:11.113Z,18.54
2023-08-11T23:24:37.658Z,18.53
2023-08-11T23:27:04.410Z,18.55
2023-08-11T23:29:32.068Z,18.60
2023-08-11T23:31:58.759Z,18.56
2023-08-11T23:34:25.344Z,18.56
2023-08-11T23:36:52.978Z,18.57
2023-08-11T23:39:20.602Z,18.56
2023-08-11T23:41:47.189Z,18.56
2023-08-11T23:44:14.806Z,18.50
2023-08-11T23:46:41.388Z,18.48
2023-08-11T23:49:08.063Z,18.51
2023-08-11T23:51:35.790Z,18.46
2023-08-11T23:54:02.511Z,18.46
2023-08-11T23:56:30.151Z,18.46
2023-08-11T23:58:56.781Z,18.47
